Aviation Digital Data Service (ADDS)

Output produced by METARs form (1324 UTC 11 December 2018)
found at http://www.aviationweather.gov/metar/data/
 
KCAK 111251Z 21008KT 2SM HZ SCT009 M07/M09 A3012 RMK AO2 TWR VIS 3 SLP215 T10671094
KCAK 111135Z 1112/1212 21012KT 4SM BR SCT008 
     FM120000 26008KT P6SM BKN020 
     FM121000 VRB03KT P6SM SCT150